Time;durP1;ratioP1;P1;durP2;ratioP2;P2;SDS_P1;SDS_P2;PMS_P1;PMS_P2;Temp;Humidity;BMP_temperature;BMP_pressure;BME280_temperature;BME280_humidity;BME280_pressure;Samples;Min_cycle;Max_cycle;Signal;HPM_P1;HPM_P2
2023/01/22 00:00:08;;;;;;;41.80;22.50;;;;;;;6.23;70.12;101639.66;107791;1256;61071;-68
2023/01/22 00:02:38;;;;;;;46.50;22.80;;;;;;;6.23;70.17;101635.94;107950;1255;75274;-68
2023/01/22 00:05:05;;;;;;;45.50;22.50;;;;;;;6.24;70.16;101639.29;107953;1256;73494;-68
2023/01/22 00:07:32;;;;;;;42.80;22.80;;;;;;;6.25;70.21;101645.37;107945;1260;73235;-69
2023/01/22 00:10:01;;;;;;;46.40;22.60;;;;;;;6.27;70.23;101642.31;107988;1259;60351;-69
2023/01/22 00:12:28;;;;;;;39.00;19.70;;;;;;;6.26;70.25;101637.21;107872;1256;62064;-69
2023/01/22 00:14:55;;;;;;;44.50;21.90;;;;;;;6.24;70.31;101643.58;107883;1257;71672;-70
2023/01/22 00:17:22;;;;;;;41.20;22.30;;;;;;;6.24;70.33;101645.66;108001;1257;70956;-68
2023/01/22 00:19:49;;;;;;;43.70;22.70;;;;;;;6.28;70.42;101649.29;108058;1257;73737;-67
2023/01/22 00:22:16;;;;;;;42.20;22.30;;;;;;;6.37;70.48;101649.96;107946;1256;60897;-67
2023/01/22 00:24:45;;;;;;;40.40;21.90;;;;;;;6.45;70.43;101649.85;107811;1261;59151;-68
2023/01/22 00:27:12;;;;;;;39.20;21.60;;;;;;;6.46;70.45;101653.78;107977;1256;71810;-67
2023/01/22 00:29:39;;;;;;;41.10;21.20;;;;;;;6.47;70.43;101660.88;108160;1256;71551;-66
2023/01/22 00:32:07;;;;;;;39.80;21.20;;;;;;;6.49;70.37;101660.80;107891;1256;72752;-67
2023/01/22 00:34:34;;;;;;;37.80;21.20;;;;;;;6.48;70.42;101664.48;107911;1256;61832;-67
2023/01/22 00:37:01;;;;;;;39.20;22.10;;;;;;;6.42;70.76;101665.63;108016;1259;59505;-66
2023/01/22 00:39:28;;;;;;;38.30;20.20;;;;;;;6.43;70.87;101663.94;107950;1255;72203;-67
2023/01/22 00:41:58;;;;;;;37.50;19.10;;;;;;;6.45;70.89;101665.61;108025;1256;72788;-66
2023/01/22 00:44:25;;;;;;;36.90;21.00;;;;;;;6.45;70.76;101670.02;107859;1257;73443;-67
2023/01/22 00:46:53;;;;;;;38.80;20.10;;;;;;;6.45;70.88;101671.91;107955;1256;62564;-68
2023/01/22 00:49:20;;;;;;;36.10;19.80;;;;;;;6.47;70.80;101673.94;107891;1255;60837;-66
2023/01/22 00:51:47;;;;;;;36.80;20.70;;;;;;;6.49;70.75;101674.19;108014;1256;74385;-65
2023/01/22 00:54:14;;;;;;;37.40;21.00;;;;;;;6.51;70.81;101675.09;107812;1259;73468;-67
2023/01/22 00:56:41;;;;;;;34.70;18.70;;;;;;;6.52;70.74;101677.45;107881;1257;73789;-66
2023/01/22 00:59:09;;;;;;;34.90;19.20;;;;;;;6.55;70.70;101678.52;107914;1257;63049;-67
2023/01/22 01:01:37;;;;;;;34.90;19.10;;;;;;;6.56;70.68;101682.98;108020;1256;61861;-67
2023/01/22 01:04:06;;;;;;;32.10;18.30;;;;;;;6.57;70.74;101686.61;107913;1256;74084;-68
2023/01/22 01:06:34;;;;;;;35.10;18.90;;;;;;;6.60;70.80;101683.96;107934;1256;72705;-66
2023/01/22 01:09:04;;;;;;;31.20;17.50;;;;;;;6.60;70.71;101689.44;107902;1256;74956;-66
2023/01/22 01:11:34;;;;;;;33.00;17.90;;;;;;;6.58;70.65;101690.02;107871;1256;63075;-71
2023/01/22 01:14:01;;;;;;;31.30;18.10;;;;;;;6.56;70.75;101693.14;107888;1259;60404;-67
2023/01/22 01:16:29;;;;;;;31.50;18.50;;;;;;;6.54;70.80;101695.59;107918;1256;75205;-67
2023/01/22 01:19:06;;;;;;;30.50;17.40;;;;;;;6.57;70.78;101695.85;107851;1256;73078;-68
2023/01/22 01:21:33;;;;;;;29.60;17.20;;;;;;;6.61;70.78;101696.02;108100;1256;71205;-69
2023/01/22 01:24:01;;;;;;;31.40;18.10;;;;;;;6.67;70.77;101700.39;107929;1256;61254;-67
2023/01/22 01:26:28;;;;;;;30.70;17.30;;;;;;;6.82;70.51;101700.61;107861;1256;60811;-67
2023/01/22 01:28:55;;;;;;;29.60;17.30;;;;;;;6.90;70.39;101701.51;107943;1256;75926;-67
2023/01/22 01:31:24;;;;;;;28.60;16.30;;;;;;;6.97;70.18;101697.63;107940;1256;74778;-66
2023/01/22 01:33:55;;;;;;;28.40;16.10;;;;;;;6.94;70.27;101696.98;107892;1260;74840;-66
2023/01/22 01:36:23;;;;;;;28.50;16.30;;;;;;;6.89;70.35;101699.79;107924;1256;60679;-66
2023/01/22 01:39:10;;;;;;;27.40;16.00;;;;;;;6.87;70.39;101696.64;107985;1257;59639;-68
2023/01/22 01:41:37;;;;;;;28.50;16.30;;;;;;;6.92;70.41;101701.95;108024;1256;76018;-68
2023/01/22 01:44:12;;;;;;;28.10;16.70;;;;;;;6.98;70.47;101702.30;107956;1256;74045;-67
2023/01/22 01:46:45;;;;;;;28.50;16.40;;;;;;;7.04;70.38;101705.84;107969;1256;74649;-66
2023/01/22 01:49:19;;;;;;;26.40;15.40;;;;;;;7.08;70.24;101709.23;107847;1260;60354;-68
2023/01/22 01:51:46;;;;;;;27.70;16.10;;;;;;;7.10;70.18;101713.02;107912;1257;62163;-67
2023/01/22 01:54:14;;;;;;;30.60;17.10;;;;;;;7.10;69.96;101713.02;107901;1256;75309;-67
2023/01/22 01:56:45;;;;;;;32.20;17.90;;;;;;;7.11;70.01;101711.77;108043;1257;73280;-66
2023/01/22 01:59:13;;;;;;;27.30;16.50;;;;;;;7.16;69.90;101715.77;107702;1256;73679;-67
2023/01/22 02:01:40;;;;;;;26.20;14.60;;;;;;;7.21;69.80;101714.61;107810;1257;60513;-66
2023/01/22 02:04:07;;;;;;;23.60;15.00;;;;;;;7.26;69.81;101719.72;107928;1255;61357;-67
2023/01/22 02:06:35;;;;;;;24.50;14.90;;;;;;;7.33;69.68;101720.73;107794;1262;73262;-68
2023/01/22 02:09:02;;;;;;;24.80;15.30;;;;;;;7.41;69.74;101716.79;107804;1256;72900;-68
2023/01/22 02:11:29;;;;;;;24.00;13.70;;;;;;;7.48;69.60;101720.95;107907;1257;71034;-67
2023/01/22 02:14:00;;;;;;;25.40;14.80;;;;;;;7.51;69.39;101722.66;107847;1256;60534;-68
2023/01/22 02:16:27;;;;;;;22.80;13.70;;;;;;;7.53;69.21;101727.77;107865;1254;62511;-67
2023/01/22 02:18:54;;;;;;;23.10;13.50;;;;;;;7.56;69.15;101732.17;107934;1260;71902;-68
2023/01/22 02:21:45;;;;;;;20.90;13.00;;;;;;;7.58;68.91;101737.79;107921;1260;74096;-67
2023/01/22 02:24:14;;;;;;;22.10;13.50;;;;;;;7.54;68.78;101735.41;107706;1258;73763;-67
2023/01/22 02:26:42;;;;;;;23.50;13.90;;;;;;;7.46;68.48;101740.30;107938;1260;63093;-67
2023/01/22 02:29:13;;;;;;;25.50;14.60;;;;;;;7.38;68.49;101744.65;107937;1259;60681;-68
2023/01/22 02:31:40;;;;;;;24.40;14.40;;;;;;;7.34;68.44;101748.50;107785;1262;75493;-70
2023/01/22 02:34:07;;;;;;;22.40;13.90;;;;;;;7.26;68.33;101753.66;107846;1256;73697;-69
2023/01/22 02:36:35;;;;;;;24.90;14.80;;;;;;;7.24;68.41;101754.20;108020;1259;73995;-67
2023/01/22 02:39:03;;;;;;;22.20;14.10;;;;;;;7.23;68.41;101756.67;107730;1259;60309;-67
2023/01/22 02:41:30;;;;;;;23.70;13.60;;;;;;;7.21;68.42;101755.95;107701;1257;60396;-67
2023/01/22 02:43:58;;;;;;;26.00;14.80;;;;;;;7.23;68.38;101753.82;107937;1260;73908;-67
2023/01/22 02:46:25;;;;;;;27.50;14.60;;;;;;;7.19;68.23;101756.60;107791;1257;74182;-67
2023/01/22 02:48:52;;;;;;;23.70;13.40;;;;;;;7.14;68.23;101759.09;108014;1260;72962;-68
2023/01/22 02:51:21;;;;;;;24.40;14.80;;;;;;;7.11;68.22;101757.49;108025;1257;61523;-67
2023/01/22 02:53:48;;;;;;;25.60;14.00;;;;;;;7.06;68.21;101759.98;107952;1255;61279;-67
2023/01/22 02:56:16;;;;;;;25.70;14.00;;;;;;;7.02;68.23;101761.55;108037;1257;72539;-67
2023/01/22 02:58:43;;;;;;;23.50;14.20;;;;;;;6.99;68.25;101764.20;107972;1257;72431;-68
2023/01/22 03:01:19;;;;;;;22.00;13.30;;;;;;;6.99;68.27;101765.95;107946;1260;73123;-67
2023/01/22 03:03:53;;;;;;;21.60;13.40;;;;;;;7.05;68.44;101761.17;107947;1257;60503;-67
2023/01/22 03:06:21;;;;;;;22.60;13.00;;;;;;;7.09;68.39;101767.70;107732;1261;60698;-67
2023/01/22 03:08:51;;;;;;;22.50;13.80;;;;;;;7.10;68.31;101767.05;107965;1257;76137;-66
2023/01/22 03:11:19;;;;;;;25.20;13.40;;;;;;;7.10;68.38;101764.56;108024;1257;74736;-66
2023/01/22 03:22:10;;;;;;;22.70;12.90;;;;;;;6.91;68.08;101774.73;107949;1260;74474;-66
2023/01/22 03:24:37;;;;;;;19.80;12.10;;;;;;;6.83;68.17;101778.96;107967;1260;72031;-65
2023/01/22 03:27:04;;;;;;;21.30;13.10;;;;;;;6.78;68.30;101782.22;107986;1257;73447;-67
2023/01/22 03:29:32;;;;;;;21.40;12.80;;;;;;;6.78;68.49;101783.13;107984;1259;61990;-65
2023/01/22 03:32:00;;;;;;;21.30;12.50;;;;;;;6.79;68.42;101783.54;107968;1256;60184;-66
2023/01/22 03:34:27;;;;;;;21.40;13.20;;;;;;;6.79;68.59;101784.92;107978;1256;75975;-67
2023/01/22 03:36:55;;;;;;;20.00;12.50;;;;;;;6.79;68.67;101787.01;107959;1259;74842;-66
2023/01/22 03:39:22;;;;;;;21.30;12.80;;;;;;;6.83;68.72;101783.77;108007;1255;73598;-66
2023/01/22 03:41:50;;;;;;;20.80;12.00;;;;;;;6.87;68.80;101784.81;107999;1256;64253;-66
2023/01/22 03:44:18;;;;;;;20.80;11.70;;;;;;;6.87;68.62;101782.69;107965;1255;60505;-66
2023/01/22 03:46:46;;;;;;;19.40;11.80;;;;;;;6.85;68.62;101786.34;107983;1258;76069;-67
2023/01/22 03:49:13;;;;;;;21.10;12.30;;;;;;;6.83;68.63;101784.48;107927;1257;70998;-67
2023/01/22 03:51:42;;;;;;;18.40;10.70;;;;;;;6.82;68.59;101789.02;107982;1256;74962;-68
2023/01/22 03:54:10;;;;;;;18.20;11.30;;;;;;;6.75;68.53;101792.55;107897;1257;62063;-67
2023/01/22 03:56:37;;;;;;;18.70;11.40;;;;;;;6.69;68.70;101794.02;107968;1257;60472;-67
2023/01/22 03:59:09;;;;;;;18.80;11.10;;;;;;;6.66;68.72;101801.08;107910;1257;73831;-67
2023/01/22 04:01:36;;;;;;;18.70;11.10;;;;;;;6.58;68.80;101800.55;107721;1257;74231;-66
2023/01/22 04:04:03;;;;;;;18.10;11.00;;;;;;;6.51;68.90;101799.36;107931;1257;73047;-66
2023/01/22 04:06:31;;;;;;;19.70;12.30;;;;;;;6.49;69.02;101806.77;107962;1255;60454;-66
2023/01/22 04:08:58;;;;;;;18.70;11.20;;;;;;;6.46;69.12;101808.00;107866;1257;62628;-67
2023/01/22 04:11:36;;;;;;;21.30;12.50;;;;;;;6.46;69.21;101815.48;107927;1257;74559;-67
2023/01/22 04:14:07;;;;;;;21.10;12.40;;;;;;;6.41;69.24;101819.86;108012;1254;75227;-68
2023/01/22 04:16:35;;;;;;;22.10;13.10;;;;;;;6.39;69.29;101826.31;107926;1256;73556;-66
2023/01/22 04:19:08;;;;;;;21.60;12.40;;;;;;;6.39;69.40;101833.73;107857;1255;62940;-68
2023/01/22 04:21:41;;;;;;;21.60;13.30;;;;;;;6.39;69.44;101837.15;108041;1258;60554;-66
2023/01/22 04:24:10;;;;;;;21.90;13.40;;;;;;;6.38;69.50;101836.66;107971;1257;73802;-68
2023/01/22 04:26:37;;;;;;;21.90;12.40;;;;;;;6.39;69.57;101839.73;107849;1257;73537;-67
2023/01/22 04:29:05;;;;;;;24.90;14.10;;;;;;;6.35;69.43;101838.17;107865;1255;73099;-67
2023/01/22 04:31:34;;;;;;;26.20;13.90;;;;;;;6.28;69.37;101840.77;107914;1257;61047;-66
2023/01/22 04:34:23;;;;;;;25.50;13.50;;;;;;;6.20;69.39;101842.45;107638;1257;61341;-68
2023/01/22 04:36:59;;;;;;;22.80;13.30;;;;;;;6.14;69.53;101841.85;107939;1257;73016;-66
2023/01/22 04:39:31;;;;;;;24.80;14.10;;;;;;;6.09;69.61;101848.08;107809;1258;73267;-66
2023/01/22 04:41:58;;;;;;;25.70;14.70;;;;;;;6.06;69.68;101855.45;107910;1257;73551;-67
2023/01/22 04:44:26;;;;;;;22.40;12.80;;;;;;;6.07;69.78;101858.66;107811;1256;63557;-67
2023/01/22 04:46:53;;;;;;;21.60;13.10;;;;;;;6.07;69.80;101859.84;108104;1257;60274;-66
2023/01/22 04:49:21;;;;;;;21.70;12.30;;;;;;;6.06;69.90;101862.17;107938;1257;74414;-67
2023/01/22 04:51:52;;;;;;;21.60;12.60;;;;;;;6.04;69.92;101861.38;107805;1258;73364;-68
2023/01/22 04:54:20;;;;;;;21.90;12.90;;;;;;;6.02;69.95;101867.48;107819;1257;73341;-68
2023/01/22 04:56:47;;;;;;;21.10;11.90;;;;;;;6.00;70.12;101870.54;107904;1260;60998;-66
2023/01/22 04:59:14;;;;;;;18.70;11.60;;;;;;;6.01;70.09;101872.13;107919;1257;62308;-67
2023/01/22 05:01:43;;;;;;;21.10;12.30;;;;;;;6.00;70.13;101873.89;107962;1257;77496;-68
2023/01/22 05:04:10;;;;;;;20.40;11.90;;;;;;;5.96;70.09;101875.04;108006;1257;74468;-67
2023/01/22 05:06:40;;;;;;;22.00;12.20;;;;;;;5.91;70.18;101878.04;107976;1256;73066;-67
2023/01/22 05:09:07;;;;;;;22.10;12.50;;;;;;;5.85;70.34;101882.43;107850;1257;63164;-66
2023/01/22 05:11:49;;;;;;;23.60;12.50;;;;;;;5.85;70.50;101881.54;107853;1257;61406;-65
2023/01/22 05:14:17;;;;;;;21.90;12.70;;;;;;;5.83;70.52;101884.79;107949;1257;73381;-66
2023/01/22 05:16:47;;;;;;;21.30;11.80;;;;;;;5.81;70.56;101886.12;107934;1257;75210;-66
2023/01/22 05:19:15;;;;;;;22.20;12.60;;;;;;;5.79;70.63;101885.48;107685;1260;73614;-66
2023/01/22 05:21:43;;;;;;;21.30;12.70;;;;;;;5.76;70.74;101890.16;108009;1254;60824;-66
2023/01/22 05:24:13;;;;;;;24.70;13.50;;;;;;;5.78;70.85;101892.16;108109;1254;60268;-66
2023/01/22 05:26:40;;;;;;;20.50;12.00;;;;;;;5.79;70.83;101899.45;108089;1257;75006;-66
2023/01/22 05:29:12;;;;;;;;;;;;;;;5.81;70.86;101900.27;107985;1258;75045;-67
2023/01/22 05:31:57;;;;;;;20.90;11.90;;;;;;;5.82;70.93;101902.23;107902;1258;73785;-67
2023/01/22 05:34:30;;;;;;;19.30;11.50;;;;;;;5.84;70.89;101909.80;107838;1256;61306;-65
2023/01/22 05:36:59;;;;;;;25.00;13.50;;;;;;;5.82;70.87;101912.33;107765;1256;60778;-66
2023/01/22 05:39:28;;;;;;;21.00;12.60;;;;;;;5.80;70.89;101911.33;107932;1254;74866;-65
2023/01/22 05:41:58;;;;;;;21.50;12.10;;;;;;;5.79;70.93;101916.75;108016;1255;73353;-66
2023/01/22 05:44:25;;;;;;;20.70;12.60;;;;;;;5.76;70.99;101912.92;107939;1257;72614;-66
2023/01/22 05:46:54;;;;;;;23.20;12.80;;;;;;;5.71;71.08;101913.38;107879;1255;60798;-67
2023/01/22 05:49:30;;;;;;;23.50;13.10;;;;;;;5.68;71.13;101914.27;107978;1257;60844;-67
2023/01/22 05:51:58;;;;;;;22.00;13.00;;;;;;;5.67;71.21;101918.88;107915;1257;74977;-66
2023/01/22 05:54:25;;;;;;;24.50;12.90;;;;;;;5.64;71.28;101922.20;107760;1258;74816;-67
2023/01/22 05:56:53;;;;;;;23.90;12.50;;;;;;;5.61;71.29;101925.15;107985;1258;71923;-66
2023/01/22 05:59:22;;;;;;;22.70;13.40;;;;;;;5.62;71.43;101930.01;107916;1256;63155;-66
2023/01/22 06:01:59;;;;;;;23.70;13.30;;;;;;;5.63;71.44;101930.77;107912;1259;60325;-67
2023/01/22 06:04:26;;;;;;;22.60;13.20;;;;;;;5.62;71.43;101929.48;107755;1257;71682;-67
2023/01/22 06:06:53;;;;;;;23.50;13.30;;;;;;;5.62;71.40;101930.26;107823;1257;73162;-67
2023/01/22 06:09:21;;;;;;;24.70;13.30;;;;;;;5.58;71.41;101938.29;107931;1256;72050;-65
2023/01/22 06:11:48;;;;;;;24.70;14.20;;;;;;;5.55;71.46;101940.42;107995;1255;62519;-65
2023/01/22 06:14:16;;;;;;;23.00;13.70;;;;;;;5.53;71.61;101935.89;107949;1256;61489;-68
2023/01/22 06:16:43;;;;;;;24.40;13.70;;;;;;;5.54;71.59;101941.68;107840;1257;72254;-71
2023/01/22 06:19:21;;;;;;;22.00;12.60;;;;;;;5.54;71.72;101939.31;107868;1257;74188;-67
2023/01/22 06:21:51;;;;;;;25.40;12.70;;;;;;;5.55;71.73;101940.83;107989;1257;72568;-66
2023/01/22 06:24:25;;;;;;;24.70;13.50;;;;;;;5.57;71.71;101941.83;107923;1254;62485;-66
2023/01/22 06:26:52;;;;;;;24.40;13.70;;;;;;;5.60;71.68;101950.05;107894;1257;60540;-66
2023/01/22 06:29:19;;;;;;;23.90;13.50;;;;;;;5.64;71.73;101953.40;107958;1257;73490;-67
2023/01/22 06:31:47;;;;;;;25.10;13.90;;;;;;;5.68;71.75;101958.80;108047;1257;72142;-66
2023/01/22 06:34:16;;;;;;;21.90;13.20;;;;;;;5.69;71.73;101968.40;108003;1256;73736;-70
2023/01/22 06:36:44;;;;;;;23.70;13.40;;;;;;;5.73;71.78;101970.80;107863;1257;60855;-67
2023/01/22 06:39:13;;;;;;;23.40;13.40;;;;;;;5.79;71.86;101976.70;107984;1257;60973;-66
2023/01/22 06:41:43;;;;;;;23.70;13.60;;;;;;;5.83;71.70;101980.65;108001;1256;72018;-66
2023/01/22 06:44:11;;;;;;;23.00;12.40;;;;;;;5.84;71.62;101983.31;107999;1256;74178;-65
2023/01/22 06:46:38;;;;;;;25.80;13.80;;;;;;;5.84;71.54;101985.71;107822;1256;73047;-66
2023/01/22 06:49:11;;;;;;;24.60;14.60;;;;;;;5.88;71.64;101992.94;107894;1254;63845;-66
2023/01/22 06:51:39;;;;;;;24.70;14.30;;;;;;;5.97;71.66;101994.64;107894;1260;60707;-66
2023/01/22 06:54:06;;;;;;;23.60;14.20;;;;;;;6.06;71.58;101997.04;108000;1256;75951;-68
2023/01/22 06:56:33;;;;;;;22.50;12.90;;;;;;;6.15;71.49;101996.54;107955;1257;74164;-68
2023/01/22 06:59:03;;;;;;;23.90;13.60;;;;;;;6.14;71.17;102002.08;107807;1257;74792;-69
2023/01/22 07:01:30;;;;;;;24.40;14.70;;;;;;;6.08;71.10;102001.18;108017;1257;60306;-66
2023/01/22 07:03:57;;;;;;;27.30;15.00;;;;;;;6.06;71.01;102003.27;107961;1256;61470;-67
2023/01/22 07:19:50;;;;;;;23.80;15.20;;;;;;;5.85;71.40;102010.68;105788;1287;611982;-76
2023/01/22 07:22:17;;;;;;;26.10;15.90;;;;;;;6.20;70.34;102010.34;107170;1270;141255;-74
2023/01/22 07:24:44;;;;;;;26.90;16.10;;;;;;;6.14;70.46;102009.51;107351;1267;60759;-76
2023/01/22 07:27:11;;;;;;;27.90;16.50;;;;;;;6.10;70.47;102004.91;107345;1267;72150;-76
2023/01/22 07:29:38;;;;;;;29.50;16.10;;;;;;;6.05;70.61;102004.90;107250;1267;72034;-74
2023/01/22 07:32:05;;;;;;;27.40;15.30;;;;;;;6.04;70.67;102004.13;107305;1267;72348;-74
2023/01/22 07:34:32;;;;;;;27.20;15.40;;;;;;;6.04;70.76;102009.14;107232;1267;62962;-76
2023/01/22 07:37:02;;;;;;;28.60;16.40;;;;;;;6.09;70.77;102005.72;107351;1267;60494;-77
2023/01/22 07:39:29;;;;;;;29.40;16.50;;;;;;;6.10;70.78;102009.61;107312;1267;73451;-75
2023/01/22 07:41:59;;;;;;;34.80;18.50;;;;;;;6.10;70.73;102011.56;107304;1266;73306;-75
2023/01/22 07:44:29;;;;;;;29.90;17.70;;;;;;;6.10;70.77;102010.05;107194;1267;74448;-76
2023/01/22 07:46:56;;;;;;;29.30;18.10;;;;;;;6.09;70.72;102007.84;107232;1267;61134;-75
2023/01/22 07:49:23;;;;;;;31.20;17.90;;;;;;;6.05;70.81;102010.34;107213;1267;62450;-76
2023/01/22 07:51:50;;;;;;;29.70;16.50;;;;;;;6.05;70.92;102013.67;107282;1267;73106;-76
2023/01/22 07:54:18;;;;;;;32.10;18.30;;;;;;;6.05;70.97;102017.15;107173;1267;72870;-77
2023/01/22 07:56:46;;;;;;;29.90;16.80;;;;;;;6.04;70.87;102020.73;107578;1260;72583;-76
2023/01/22 07:59:13;;;;;;;27.50;16.60;;;;;;;6.01;70.91;102020.98;107572;1260;59919;-75
2023/01/22 08:01:40;;;;;;;31.10;17.50;;;;;;;6.02;70.84;102027.31;108012;1257;59419;-76
2023/01/22 08:04:07;;;;;;;33.00;17.90;;;;;;;6.03;71.01;102026.97;107973;1256;73380;-75
2023/01/22 08:06:34;;;;;;;32.10;17.60;;;;;;;6.08;71.04;102029.70;107888;1257;74020;-76
2023/01/22 08:09:01;;;;;;;32.90;18.10;;;;;;;6.14;71.02;102034.27;107958;1256;72408;-75
2023/01/22 08:11:28;;;;;;;28.40;16.30;;;;;;;6.16;70.82;102039.13;107806;1256;63216;-76
2023/01/22 08:13:55;;;;;;;29.90;17.00;;;;;;;6.16;70.86;102039.86;107825;1257;59736;-75
2023/01/22 08:16:22;;;;;;;29.80;17.20;;;;;;;6.18;70.85;102038.77;107944;1260;72947;-75
2023/01/22 08:18:49;;;;;;;31.80;18.10;;;;;;;6.20;70.84;102039.40;107811;1257;73487;-75
2023/01/22 08:21:16;;;;;;;32.50;18.30;;;;;;;6.20;70.95;102042.50;107844;1257;74972;-75
2023/01/22 08:23:43;;;;;;;33.00;18.50;;;;;;;6.21;70.82;102043.45;107734;1257;60258;-75
2023/01/22 08:26:14;;;;;;;32.80;18.30;;;;;;;6.19;70.79;102045.11;107808;1257;59724;-76
2023/01/22 08:28:44;;;;;;;33.80;19.30;;;;;;;6.20;70.86;102045.52;107740;1256;74913;-77
2023/01/22 08:31:11;;;;;;;34.10;18.70;;;;;;;6.18;70.88;102050.73;107789;1257;71918;-75
2023/01/22 08:33:52;;;;;;;35.90;19.70;;;;;;;6.15;70.83;102050.74;107807;1256;72781;-76
2023/01/22 08:36:19;;;;;;;33.00;19.10;;;;;;;6.12;70.82;102051.90;107926;1256;59940;-75
2023/01/22 08:38:48;;;;;;;32.50;18.40;;;;;;;6.13;70.92;102051.46;108031;1256;59573;-76
2023/01/22 08:41:15;;;;;;;36.90;19.80;;;;;;;6.14;70.89;102050.16;107951;1257;75101;-76
2023/01/22 08:43:42;;;;;;;33.80;19.60;;;;;;;6.11;70.92;102056.17;107725;1257;73142;-75
2023/01/22 08:46:09;;;;;;;35.80;20.00;;;;;;;6.11;70.90;102056.70;107870;1256;74767;-76
2023/01/22 08:48:38;;;;;;;33.10;19.40;;;;;;;6.14;71.00;102064.48;107807;1257;61780;-76
2023/01/22 08:51:05;;;;;;;29.80;17.70;;;;;;;6.15;71.00;102065.83;107912;1257;59612;-75
2023/01/22 08:53:32;;;;;;;33.10;18.50;;;;;;;6.15;70.99;102065.55;107871;1257;73313;-75
2023/01/22 08:55:59;;;;;;;35.70;19.50;;;;;;;6.11;70.93;102064.83;107883;1256;75524;-76
2023/01/22 08:58:26;;;;;;;34.90;20.30;;;;;;;6.10;70.98;102059.39;107820;1256;72644;-75
2023/01/22 09:00:54;;;;;;;35.50;20.40;;;;;;;6.10;71.05;102061.39;107896;1255;60311;-76
2023/01/22 09:03:21;;;;;;;33.80;19.90;;;;;;;6.19;71.20;102058.81;107956;1256;59540;-76
2023/01/22 09:05:49;;;;;;;30.70;18.10;;;;;;;6.26;71.19;102058.26;107949;1257;73318;-75
2023/01/22 09:08:17;;;;;;;34.60;19.30;;;;;;;6.29;71.10;102058.58;107906;1257;74112;-76
2023/01/22 09:10:44;;;;;;;31.20;18.30;;;;;;;6.32;70.99;102066.85;107792;1257;74729;-76
2023/01/22 09:13:11;;;;;;;34.50;19.80;;;;;;;6.36;71.07;102064.64;107907;1256;62096;-76
2023/01/22 09:15:39;;;;;;;34.00;19.10;;;;;;;6.37;70.78;102065.59;107940;1256;62418;-75
2023/01/22 09:18:06;;;;;;;33.50;19.70;;;;;;;6.32;70.61;102065.23;107900;1256;73340;-76
2023/01/22 09:20:33;;;;;;;32.80;19.10;;;;;;;6.31;70.62;102064.02;107961;1257;73446;-76
2023/01/22 09:23:00;;;;;;;32.50;18.50;;;;;;;6.31;70.63;102062.19;107906;1257;71918;-75
2023/01/22 09:25:28;;;;;;;31.70;19.10;;;;;;;6.30;70.56;102067.07;107966;1256;63502;-76
2023/01/22 09:27:59;;;;;;;32.40;18.90;;;;;;;6.30;70.56;102070.83;107943;1256;61030;-75
2023/01/22 09:30:28;;;;;;;24.80;14.80;;;;;;;6.29;70.57;102076.42;107966;1257;75008;-76
2023/01/22 09:32:56;;;;;;;31.70;18.30;;;;;;;6.30;70.57;102069.92;107893;1260;72765;-76
2023/01/22 09:35:25;;;;;;;34.90;19.60;;;;;;;6.33;70.60;102072.73;107893;1257;73605;-76
2023/01/22 09:37:53;;;;;;;32.10;18.10;;;;;;;6.35;70.58;102077.61;107918;1258;61391;-76
2023/01/22 09:40:25;;;;;;;29.10;17.30;;;;;;;6.39;70.57;102076.29;107858;1257;62589;-76
2023/01/22 09:43:01;;;;;;;32.00;18.80;;;;;;;6.41;70.47;102077.82;107675;1256;75040;-75
2023/01/22 09:45:28;;;;;;;33.10;18.70;;;;;;;6.40;70.39;102078.17;107902;1256;74764;-76
2023/01/22 09:47:58;;;;;;;33.40;18.50;;;;;;;6.41;70.36;102079.83;107864;1256;74404;-76
2023/01/22 09:50:27;;;;;;;29.40;16.90;;;;;;;6.44;70.37;102080.62;107802;1256;61864;-77
2023/01/22 09:52:56;;;;;;;27.00;16.90;;;;;;;6.47;70.36;102082.67;107935;1257;61160;-76
2023/01/22 09:55:26;;;;;;;29.90;17.10;;;;;;;6.50;70.26;102080.02;107946;1257;73200;-75
2023/01/22 09:57:54;;;;;;;31.90;17.50;;;;;;;6.49;70.09;102081.52;107833;1256;73296;-75
2023/01/22 10:00:36;;;;;;;31.30;17.70;;;;;;;6.46;70.02;102078.89;107960;1256;74511;-75
2023/01/22 10:03:11;;;;;;;29.60;18.20;;;;;;;6.46;70.07;102079.13;107863;1256;61107;-76
2023/01/22 10:05:41;;;;;;;31.40;17.40;;;;;;;6.47;70.07;102075.79;107835;1257;60914;-75
2023/01/22 10:08:12;;;;;;;30.60;17.00;;;;;;;6.49;69.99;102075.52;107826;1257;73779;-77
2023/01/22 10:10:39;;;;;;;28.00;16.10;;;;;;;6.48;70.04;102075.34;108008;1256;74147;-76
2023/01/22 10:13:22;;;;;;;29.80;17.90;;;;;;;6.48;69.93;102076.36;107935;1256;74975;-76
2023/01/22 10:15:52;;;;;;;29.90;16.70;;;;;;;6.48;69.91;102079.95;107807;1261;62217;-76
2023/01/22 10:18:24;;;;;;;27.70;16.50;;;;;;;6.46;69.90;102077.70;107965;1256;62406;-76
2023/01/22 10:20:52;;;;;;;29.50;16.00;;;;;;;6.47;69.99;102080.90;107832;1256;74203;-76
2023/01/22 10:23:22;;;;;;;28.60;16.70;;;;;;;6.49;69.89;102085.48;107966;1256;74523;-77
2023/01/22 10:25:52;;;;;;;29.60;16.80;;;;;;;6.46;69.71;102084.02;107928;1256;74686;-75
2023/01/22 10:28:23;;;;;;;27.00;16.50;;;;;;;6.44;69.72;102080.66;107842;1256;63023;-75
2023/01/22 10:30:56;;;;;;;30.00;15.70;;;;;;;6.40;69.80;102078.42;108013;1256;61166;-75
2023/01/22 10:33:24;;;;;;;27.30;16.00;;;;;;;6.38;69.80;102083.02;107935;1256;72489;-75
2023/01/22 10:35:55;;;;;;;25.80;14.60;;;;;;;6.31;69.72;102088.52;107960;1256;72922;-75
2023/01/22 10:38:32;;;;;;;24.10;13.80;;;;;;;6.29;69.72;102091.84;107999;1257;73365;-76
2023/01/22 10:41:00;;;;;;;21.60;11.50;;;;;;;6.25;69.62;102091.64;107908;1256;60614;-75
2023/01/22 10:43:33;;;;;;;20.90;11.90;;;;;;;6.25;69.60;102094.10;107897;1256;59592;-75
2023/01/22 10:46:10;;;;;;;19.00;11.40;;;;;;;6.27;69.54;102099.72;107944;1256;75348;-76
2023/01/22 10:48:37;;;;;;;21.30;12.90;;;;;;;6.30;69.46;102093.65;107968;1257;73273;-76
2023/01/22 10:51:15;;;;;;;21.30;12.30;;;;;;;6.30;69.36;102099.77;107861;1257;73833;-75
2023/01/22 10:53:52;;;;;;;20.20;12.40;;;;;;;6.33;69.36;102101.31;107914;1256;62079;-75
2023/01/22 10:56:31;;;;;;;17.20;10.60;;;;;;;6.35;69.20;102102.59;107903;1257;60108;-75
2023/01/22 10:59:04;;;;;;;19.90;11.70;;;;;;;6.37;69.17;102104.56;108001;1256;74702;-77
2023/01/22 11:01:35;;;;;;;20.30;11.70;;;;;;;6.36;69.02;102102.28;107906;1257;73673;-76
2023/01/22 11:04:23;;;;;;;17.20;10.00;;;;;;;6.37;68.93;102097.79;107858;1256;75520;-75
2023/01/22 11:06:56;;;;;;;18.20;10.10;;;;;;;6.34;68.75;102098.14;107928;1256;61672;-75
2023/01/22 11:09:25;;;;;;;17.10;10.30;;;;;;;6.30;68.63;102102.10;107862;1258;61673;-76
2023/01/22 11:12:15;;;;;;;18.00;11.00;;;;;;;6.28;68.65;102101.30;107939;1256;73211;-77
2023/01/22 11:14:42;;;;;;;16.60;10.20;;;;;;;6.27;68.44;102101.25;107869;1256;73630;-76
2023/01/22 11:17:35;;;;;;;15.00;9.30;;;;;;;6.22;68.30;102101.20;107840;1257;73511;-76
2023/01/22 11:20:10;;;;;;;15.30;9.90;;;;;;;6.19;68.27;102103.16;107985;1256;61442;-75
2023/01/22 11:22:38;;;;;;;14.60;9.40;;;;;;;6.19;68.31;102101.02;107858;1256;60674;-75
2023/01/22 11:25:09;;;;;;;14.50;9.00;;;;;;;6.16;68.22;102097.57;108145;1257;74220;-75
2023/01/22 11:27:45;;;;;;;15.90;9.90;;;;;;;6.12;68.25;102098.91;108096;1256;73658;-76
2023/01/22 11:30:33;;;;;;;14.20;8.60;;;;;;;6.10;68.19;102098.53;107978;1256;74885;-74
2023/01/22 11:33:20;;;;;;;15.60;8.80;;;;;;;6.09;68.19;102095.91;107867;1256;63494;-75
2023/01/22 11:35:50;;;;;;;13.90;9.30;;;;;;;6.04;68.11;102098.33;107891;1257;62361;-74
2023/01/22 11:38:24;;;;;;;13.50;8.30;;;;;;;6.00;68.03;102099.45;107900;1257;76124;-75
2023/01/22 11:41:15;;;;;;;14.10;8.70;;;;;;;5.95;68.05;102098.54;107853;1256;72947;-75